createdAt,value
2019-06-26T00:02:26.789Z,7.73
2019-06-26T00:04:57.195Z,7.30
2019-06-26T00:07:27.582Z,8.40
2019-06-26T00:09:57.951Z,7.17
2019-06-26T00:12:28.334Z,7.43
2019-06-26T00:14:58.695Z,6.63
2019-06-26T00:17:29.046Z,7.27
2019-06-26T00:19:59.373Z,8.17
2019-06-26T00:22:29.734Z,7.00
2019-06-26T00:25:00.143Z,8.17
2019-06-26T00:27:30.498Z,7.53
2019-06-26T00:30:00.852Z,7.13
2019-06-26T00:32:31.207Z,7.73
2019-06-26T00:35:01.570Z,7.57
2019-06-26T00:37:31.926Z,7.50
2019-06-26T00:40:02.287Z,8.20
2019-06-26T00:42:32.663Z,7.20
2019-06-26T00:45:03.039Z,6.50
2019-06-26T00:47:33.484Z,6.80
2019-06-26T00:50:04.055Z,7.40
2019-06-26T00:52:34.420Z,7.33
2019-06-26T00:55:05.192Z,8.40
2019-06-26T00:57:35.609Z,7.17
2019-06-26T01:00:10.592Z,7.40
2019-06-26T01:02:40.970Z,7.50
2019-06-26T01:05:12.319Z,6.90
2019-06-26T01:07:42.782Z,7.77
2019-06-26T01:10:14.695Z,6.97
2019-06-26T01:12:45.058Z,7.23
2019-06-26T01:15:15.708Z,6.40
2019-06-26T01:17:46.065Z,7.60
2019-06-26T01:20:16.420Z,6.90
2019-06-26T01:22:47.650Z,7.07
2019-06-26T01:25:20.969Z,7.97
2019-06-26T01:27:51.338Z,7.47
2019-06-26T01:30:21.823Z,7.20
2019-06-26T01:32:52.342Z,7.80
2019-06-26T01:35:22.694Z,7.97
2019-06-26T01:37:53.069Z,7.90
2019-06-26T01:40:23.418Z,7.80
2019-06-26T01:42:53.781Z,7.43
2019-06-26T01:45:24.138Z,7.33
2019-06-26T01:47:54.498Z,7.93
2019-06-26T01:50:24.862Z,7.00
2019-06-26T01:52:55.225Z,7.73
2019-06-26T01:55:25.618Z,7.07
2019-06-26T01:57:56.026Z,7.57
2019-06-26T02:00:26.488Z,7.70
2019-06-26T02:02:56.945Z,7.13
2019-06-26T02:05:27.365Z,7.60
2019-06-26T02:07:57.734Z,7.20
2019-06-26T02:10:28.089Z,7.00
2019-06-26T02:12:58.433Z,7.17
2019-06-26T02:15:28.819Z,8.10
2019-06-26T02:17:59.213Z,8.53
2019-06-26T02:20:29.558Z,8.17
2019-06-26T02:22:59.913Z,7.50
2019-06-26T02:25:30.320Z,7.27
2019-06-26T02:28:01.009Z,7.93
2019-06-26T02:30:31.463Z,7.67
2019-06-26T02:33:01.911Z,7.37
2019-06-26T02:35:32.265Z,7.80
2019-06-26T02:38:02.658Z,8.50
2019-06-26T02:40:33.079Z,6.83
2019-06-26T02:43:06.837Z,8.10
2019-06-26T02:45:35.660Z,8.83
2019-06-26T02:48:06.028Z,8.07
2019-06-26T02:50:36.391Z,8.03
2019-06-26T02:53:06.762Z,8.70
2019-06-26T02:55:37.112Z,7.77
2019-06-26T02:58:07.482Z,8.13
2019-06-26T03:00:37.819Z,7.90
2019-06-26T03:03:08.200Z,8.30
2019-06-26T03:05:38.530Z,8.33
2019-06-26T03:08:08.930Z,7.30
2019-06-26T03:10:39.350Z,8.03
2019-06-26T03:13:09.718Z,8.07
2019-06-26T03:15:40.094Z,8.53
2019-06-26T03:18:10.509Z,8.63
2019-06-26T03:20:44.730Z,8.43
2019-06-26T03:23:15.110Z,8.50
2019-06-26T03:25:45.487Z,7.00
2019-06-26T03:28:15.891Z,7.77
2019-06-26T03:30:46.241Z,7.77
2019-06-26T03:33:16.603Z,8.10
2019-06-26T03:35:46.950Z,7.90
2019-06-26T03:38:17.443Z,7.43
2019-06-26T03:40:47.771Z,7.90
2019-06-26T03:43:18.133Z,7.90
2019-06-26T03:45:48.490Z,7.90
2019-06-26T03:48:18.853Z,7.50
2019-06-26T03:50:49.198Z,7.53
2019-06-26T03:53:19.575Z,7.93
2019-06-26T03:55:49.926Z,7.77
2019-06-26T03:58:20.298Z,8.00
2019-06-26T04:00:50.642Z,7.40
2019-06-26T04:03:21.007Z,8.27
2019-06-26T04:05:51.417Z,7.53
2019-06-26T04:08:21.794Z,9.07
2019-06-26T04:10:52.145Z,7.10
2019-06-26T04:13:22.577Z,8.10
2019-06-26T04:15:52.938Z,7.63
2019-06-26T04:18:23.308Z,8.53
2019-06-26T04:20:53.662Z,8.17
2019-06-26T04:23:24.045Z,8.90
2019-06-26T04:25:54.392Z,8.70
2019-06-26T04:28:24.760Z,8.17
2019-06-26T04:30:55.102Z,8.70
2019-06-26T04:33:25.468Z,7.73
2019-06-26T04:35:55.825Z,8.47
2019-06-26T04:38:26.268Z,9.07
2019-06-26T04:40:56.658Z,9.90
2019-06-26T04:43:27.117Z,8.70
2019-06-26T04:45:58.717Z,8.83
2019-06-26T04:48:29.210Z,7.37
2019-06-26T04:50:59.651Z,8.23
2019-06-26T04:53:30.171Z,8.73
2019-06-26T04:56:00.633Z,8.33
2019-06-26T04:58:31.066Z,8.30
2019-06-26T05:01:01.444Z,8.23
2019-06-26T05:03:31.878Z,8.73
2019-06-26T05:06:02.237Z,25.13
2019-06-26T05:08:32.630Z,25.10
2019-06-26T05:11:03.461Z,31.77
2019-06-26T05:13:33.899Z,30.10
2019-06-26T05:16:14.501Z,21.87
2019-06-26T05:18:36.354Z,17.07
2019-06-26T05:21:06.720Z,12.10
2019-06-26T05:23:37.109Z,12.40
2019-06-26T05:26:07.524Z,11.90
2019-06-26T05:28:37.905Z,11.27
2019-06-26T05:31:08.282Z,10.43
2019-06-26T05:33:38.705Z,10.90
2019-06-26T05:36:09.070Z,9.80
2019-06-26T05:38:39.458Z,9.63
2019-06-26T05:41:09.813Z,8.80
2019-06-26T05:43:40.187Z,10.47
2019-06-26T05:46:10.568Z,10.33
2019-06-26T05:48:40.958Z,9.87
2019-06-26T05:51:11.361Z,9.33
2019-06-26T05:53:41.733Z,10.03
2019-06-26T05:56:12.106Z,9.80
2019-06-26T05:58:42.542Z,9.40
2019-06-26T06:01:12.909Z,10.10
2019-06-26T06:03:43.780Z,9.50
2019-06-26T06:06:14.122Z,9.07
2019-06-26T06:08:44.502Z,9.33
2019-06-26T06:11:14.861Z,10.57
2019-06-26T06:13:45.242Z,10.00
2019-06-26T06:16:15.606Z,10.33
2019-06-26T06:18:45.972Z,9.80
2019-06-26T06:21:16.362Z,9.70
2019-06-26T06:23:46.766Z,10.37
2019-06-26T06:26:17.176Z,9.70
2019-06-26T06:28:47.614Z,10.47
2019-06-26T06:31:18.010Z,10.03
2019-06-26T06:33:48.443Z,9.27
2019-06-26T06:36:18.839Z,9.27
2019-06-26T06:38:49.319Z,9.63
2019-06-26T06:41:19.662Z,9.10
2019-06-26T06:43:50.116Z,9.70
2019-06-26T06:46:20.500Z,8.70
2019-06-26T06:48:50.899Z,7.80
2019-06-26T06:51:21.256Z,8.90
2019-06-26T06:53:51.651Z,8.30
2019-06-26T06:56:22.034Z,8.97
2019-06-26T06:58:52.409Z,8.40
2019-06-26T07:01:22.787Z,7.77
2019-06-26T07:03:53.162Z,8.40
2019-06-26T07:06:23.505Z,9.10
2019-06-26T07:08:53.950Z,7.70
2019-06-26T07:11:24.315Z,7.50
2019-06-26T07:13:54.687Z,8.50
2019-06-26T07:16:25.046Z,7.70
2019-06-26T07:18:55.394Z,7.47
2019-06-26T07:21:25.742Z,7.90
2019-06-26T07:23:56.114Z,7.60
2019-06-26T07:26:26.511Z,7.60
2019-06-26T07:28:56.898Z,7.73
2019-06-26T07:31:27.261Z,6.70
2019-06-26T07:33:57.613Z,7.33
2019-06-26T07:36:27.970Z,7.30
2019-06-26T07:38:58.337Z,7.47
2019-06-26T07:41:28.769Z,7.20
2019-06-26T07:43:59.166Z,6.90
2019-06-26T07:46:29.583Z,7.63
2019-06-26T07:48:59.924Z,6.73
2019-06-26T07:51:30.298Z,7.40
2019-06-26T07:54:00.661Z,7.90
2019-06-26T07:56:31.002Z,7.63
2019-06-26T07:59:01.564Z,6.87
2019-06-26T08:01:32.120Z,6.87
2019-06-26T08:04:02.513Z,6.77
2019-06-26T08:06:32.913Z,7.43
2019-06-26T08:09:03.322Z,7.37
2019-06-26T08:11:33.674Z,8.07
2019-06-26T08:14:04.174Z,8.00
2019-06-26T08:16:34.611Z,6.63
2019-06-26T08:19:05.101Z,7.00
2019-06-26T08:21:35.464Z,7.23
2019-06-26T08:24:05.915Z,7.17
2019-06-26T08:26:36.275Z,7.60
2019-06-26T08:29:06.650Z,8.10
2019-06-26T08:31:37.014Z,7.17
2019-06-26T08:34:07.380Z,7.50
2019-06-26T08:36:37.747Z,7.37
2019-06-26T08:39:08.146Z,7.20
2019-06-26T08:41:38.485Z,7.77
2019-06-26T08:44:08.848Z,7.83
2019-06-26T08:46:39.257Z,8.80
2019-06-26T08:49:24.368Z,7.97
2019-06-26T08:51:41.690Z,7.53
2019-06-26T08:54:12.060Z,7.10
2019-06-26T08:56:42.421Z,7.70
2019-06-26T08:59:12.823Z,7.43
2019-06-26T09:01:43.183Z,7.13
2019-06-26T09:04:13.560Z,7.33
2019-06-26T09:06:43.919Z,7.20
2019-06-26T09:09:14.298Z,7.20
2019-06-26T09:11:44.650Z,7.70
2019-06-26T09:14:15.057Z,7.97
2019-06-26T09:16:45.440Z,6.47
2019-06-26T09:19:15.794Z,8.03
2019-06-26T09:21:46.157Z,7.00
2019-06-26T09:24:16.586Z,7.93
2019-06-26T09:26:46.922Z,7.00
2019-06-26T09:29:17.384Z,8.87
2019-06-26T09:31:47.798Z,8.13
2019-06-26T09:34:18.174Z,8.13
2019-06-26T09:36:48.534Z,7.50
2019-06-26T09:39:18.917Z,7.23
2019-06-26T09:41:49.274Z,7.17
2019-06-26T09:44:19.665Z,7.93
2019-06-26T09:46:50.083Z,7.77
2019-06-26T09:49:20.448Z,8.70
2019-06-26T09:51:50.873Z,7.07
2019-06-26T09:54:21.291Z,6.93
2019-06-26T09:56:51.692Z,7.80
2019-06-26T09:59:22.066Z,6.90
2019-06-26T10:01:52.494Z,7.37
2019-06-26T10:04:22.831Z,8.13
2019-06-26T10:06:53.275Z,7.30
2019-06-26T10:09:23.692Z,7.00
2019-06-26T10:11:54.063Z,7.87
2019-06-26T10:14:24.438Z,7.63
2019-06-26T10:16:54.841Z,7.10
2019-06-26T10:19:25.267Z,7.80
2019-06-26T10:21:55.672Z,8.13
2019-06-26T10:24:26.038Z,8.00
2019-06-26T10:26:56.498Z,7.67
2019-06-26T10:29:26.899Z,8.23
2019-06-26T10:31:57.276Z,7.90
2019-06-26T10:34:27.622Z,7.40
2019-06-26T10:36:58.059Z,8.40
2019-06-26T10:39:28.431Z,7.23
2019-06-26T10:41:58.802Z,7.63
2019-06-26T10:44:29.152Z,8.20
2019-06-26T10:46:59.654Z,6.97
2019-06-26T10:49:30.105Z,6.87
2019-06-26T10:52:00.485Z,7.70
2019-06-26T10:54:30.864Z,7.27
2019-06-26T10:57:01.287Z,7.53
2019-06-26T10:59:31.762Z,8.17
2019-06-26T11:02:02.209Z,7.60
2019-06-26T11:04:32.600Z,7.43
2019-06-26T11:07:02.983Z,7.43
2019-06-26T11:09:33.418Z,8.10
2019-06-26T11:12:03.775Z,8.83
2019-06-26T11:14:34.222Z,7.30
2019-06-26T11:17:04.657Z,8.10
2019-06-26T11:19:43.709Z,7.87
2019-06-26T11:22:07.139Z,7.33
2019-06-26T11:24:37.540Z,7.30
2019-06-26T11:27:07.959Z,8.37
2019-06-26T11:29:38.321Z,7.97
2019-06-26T11:32:09.722Z,7.60
2019-06-26T11:34:40.366Z,7.63
2019-06-26T11:37:10.709Z,7.43
2019-06-26T11:39:41.174Z,7.80
2019-06-26T11:42:11.636Z,7.10
2019-06-26T11:44:42.006Z,7.37
2019-06-26T11:47:12.406Z,7.97
2019-06-26T11:49:55.887Z,7.60
2019-06-26T11:52:14.857Z,6.50
2019-06-26T11:55:01.138Z,7.67
2019-06-26T11:57:17.325Z,7.30
2019-06-26T11:59:47.726Z,6.83
2019-06-26T12:02:18.103Z,7.30
2019-06-26T12:04:48.509Z,7.70
2019-06-26T12:07:18.951Z,6.83
2019-06-26T12:09:49.415Z,8.43
2019-06-26T12:12:19.831Z,8.03
2019-06-26T12:14:50.373Z,8.60
2019-06-26T12:17:20.704Z,7.30
2019-06-26T12:19:51.104Z,7.37
2019-06-26T12:22:21.473Z,7.07
2019-06-26T12:24:51.937Z,7.17
2019-06-26T12:27:22.436Z,8.33
2019-06-26T12:29:52.863Z,7.03
2019-06-26T12:32:23.220Z,7.03
2019-06-26T12:34:53.616Z,7.70
2019-06-26T12:37:36.613Z,7.40
2019-06-26T12:40:01.322Z,7.17
2019-06-26T12:42:31.690Z,8.43
2019-06-26T12:45:02.138Z,7.40
2019-06-26T12:47:32.489Z,7.17
2019-06-26T12:50:02.980Z,7.50
2019-06-26T12:52:33.429Z,7.77
2019-06-26T12:55:03.926Z,8.00
2019-06-26T12:57:34.401Z,8.20
2019-06-26T13:00:06.400Z,7.83
2019-06-26T13:02:36.779Z,7.47
2019-06-26T13:05:07.582Z,7.70
2019-06-26T13:07:38.018Z,8.27
2019-06-26T13:10:11.377Z,7.37
2019-06-26T13:12:45.498Z,8.23
2019-06-26T13:15:13.813Z,9.10
2019-06-26T13:17:44.174Z,8.40
2019-06-26T13:20:15.977Z,8.70
2019-06-26T13:22:46.450Z,9.00
2019-06-26T13:25:16.878Z,9.03
2019-06-26T13:27:47.369Z,8.63
2019-06-26T13:30:22.454Z,8.87
2019-06-26T13:32:52.799Z,9.10
2019-06-26T13:35:24.297Z,9.10
2019-06-26T13:37:54.828Z,9.10
2019-06-26T13:40:25.228Z,8.93
2019-06-26T13:42:55.603Z,8.73
2019-06-26T13:45:25.981Z,9.67
2019-06-26T13:47:56.358Z,8.47
2019-06-26T13:50:26.770Z,9.37
2019-06-26T13:52:57.193Z,9.90
2019-06-26T13:55:27.569Z,9.40
2019-06-26T13:57:58.056Z,9.37
2019-06-26T14:00:28.509Z,8.93
2019-06-26T14:02:58.925Z,9.40
2019-06-26T14:05:29.616Z,9.13
2019-06-26T14:08:00.176Z,8.07
2019-06-26T14:10:30.555Z,9.00
2019-06-26T14:13:00.940Z,9.10
2019-06-26T14:15:31.321Z,8.87
2019-06-26T14:18:01.698Z,9.50
2019-06-26T14:20:32.098Z,8.30
2019-06-26T14:23:02.484Z,8.77
2019-06-26T14:25:32.910Z,8.10
2019-06-26T14:28:03.273Z,9.17
2019-06-26T14:30:33.758Z,9.43
2019-06-26T14:33:04.126Z,8.80
2019-06-26T14:35:34.537Z,8.30
2019-06-26T14:38:04.896Z,8.87
2019-06-26T14:40:35.301Z,8.83
2019-06-26T14:43:05.686Z,7.53
2019-06-26T14:45:36.142Z,8.30
2019-06-26T14:48:06.521Z,9.03
2019-06-26T14:50:36.882Z,7.33
2019-06-26T14:53:07.268Z,8.63
2019-06-26T14:55:37.618Z,8.83
2019-06-26T14:58:07.997Z,8.30
2019-06-26T15:00:38.360Z,8.20
2019-06-26T15:03:08.735Z,7.70
2019-06-26T15:05:39.073Z,7.93
2019-06-26T15:08:09.536Z,8.00
2019-06-26T15:10:39.899Z,8.23
2019-06-26T15:13:10.304Z,8.53
2019-06-26T15:15:40.902Z,8.50
2019-06-26T15:18:12.231Z,7.73
2019-06-26T15:20:42.605Z,7.50
2019-06-26T15:23:13.026Z,7.90
2019-06-26T15:25:43.461Z,7.10
2019-06-26T15:28:13.847Z,8.17
2019-06-26T15:30:44.241Z,7.60
2019-06-26T15:33:14.675Z,7.67
2019-06-26T15:35:45.050Z,8.00
2019-06-26T15:38:15.457Z,7.70
2019-06-26T15:40:45.859Z,8.03
2019-06-26T15:43:16.252Z,7.93
2019-06-26T15:45:46.665Z,7.83
2019-06-26T15:48:17.274Z,8.10
2019-06-26T15:50:47.640Z,7.80
2019-06-26T15:53:18.030Z,8.43
2019-06-26T15:55:48.440Z,8.30
2019-06-26T15:58:18.915Z,7.10
2019-06-26T16:00:49.298Z,8.27
2019-06-26T16:03:19.758Z,8.40
2019-06-26T16:05:50.287Z,8.03
2019-06-26T16:08:20.709Z,8.00
2019-06-26T16:10:51.062Z,8.43
2019-06-26T16:13:21.441Z,7.80
2019-06-26T16:15:51.902Z,8.40
2019-06-26T16:18:36.210Z,8.30
2019-06-26T16:21:06.710Z,8.07
2019-06-26T16:23:37.098Z,7.67
2019-06-26T16:26:07.520Z,7.80
2019-06-26T16:28:37.930Z,7.97
2019-06-26T16:31:08.305Z,8.00
2019-06-26T16:33:38.686Z,7.53
2019-06-26T16:36:09.018Z,8.27
2019-06-26T16:38:39.406Z,8.73
2019-06-26T16:41:09.753Z,7.53
2019-06-26T16:43:40.144Z,7.60
2019-06-26T16:46:10.518Z,8.20
2019-06-26T16:48:40.894Z,7.83
2019-06-26T16:51:11.330Z,8.27
2019-06-26T16:53:41.739Z,7.37
2019-06-26T16:56:12.128Z,8.70
2019-06-26T16:58:42.567Z,8.37
2019-06-26T17:01:12.945Z,8.63
2019-06-26T17:03:43.362Z,8.10
2019-06-26T17:06:13.785Z,7.27
2019-06-26T17:08:44.161Z,8.33
2019-06-26T17:11:14.521Z,8.00
2019-06-26T17:13:44.914Z,7.73
2019-06-26T17:16:15.309Z,8.03
2019-06-26T17:18:45.691Z,8.70
2019-06-26T17:21:16.065Z,8.13
2019-06-26T17:23:46.585Z,8.40
2019-06-26T17:26:17.006Z,8.13
2019-06-26T17:28:47.434Z,8.40
2019-06-26T17:31:17.818Z,8.53
2019-06-26T17:33:48.190Z,8.23
2019-06-26T17:36:21.641Z,7.60
2019-06-26T17:38:52.042Z,7.87
2019-06-26T17:41:22.430Z,7.90
2019-06-26T17:43:52.875Z,7.90
2019-06-26T17:46:23.344Z,7.30
2019-06-26T17:48:53.779Z,8.40
2019-06-26T17:51:24.172Z,8.47
2019-06-26T17:53:54.586Z,8.10
2019-06-26T17:56:24.938Z,8.40
2019-06-26T17:58:55.377Z,8.20
2019-06-26T18:01:25.852Z,8.27
2019-06-26T18:03:56.258Z,7.87
2019-06-26T18:06:26.713Z,7.03
2019-06-26T18:08:57.149Z,8.47
2019-06-26T18:11:27.538Z,8.20
2019-06-26T18:13:57.966Z,8.60
2019-06-26T18:16:28.352Z,8.40
2019-06-26T18:18:58.766Z,9.23
2019-06-26T18:21:29.110Z,7.77
2019-06-26T18:23:59.514Z,8.10
2019-06-26T18:26:29.894Z,8.07
2019-06-26T18:29:00.578Z,9.97
2019-06-26T18:31:30.990Z,9.33
2019-06-26T18:34:01.398Z,9.13
2019-06-26T18:36:33.657Z,9.00
2019-06-26T18:39:05.409Z,8.30
2019-06-26T18:41:35.782Z,9.80
2019-06-26T18:44:06.195Z,9.03
2019-06-26T18:46:36.578Z,9.43
2019-06-26T18:49:06.967Z,10.03
2019-06-26T18:51:37.384Z,9.27
2019-06-26T18:54:07.889Z,9.80
2019-06-26T18:56:38.283Z,8.73
2019-06-26T18:59:08.705Z,8.87
2019-06-26T19:01:39.100Z,9.07
2019-06-26T19:04:09.557Z,8.50
2019-06-26T19:06:39.969Z,9.77
2019-06-26T19:09:10.363Z,9.07
2019-06-26T19:11:40.754Z,9.63
2019-06-26T19:14:11.231Z,8.93
2019-06-26T19:16:41.649Z,9.53
2019-06-26T19:19:12.468Z,9.23
2019-06-26T19:21:43.046Z,9.37
2019-06-26T19:24:13.459Z,8.97
2019-06-26T19:26:43.851Z,10.17
2019-06-26T19:29:14.255Z,9.57
2019-06-26T19:31:44.731Z,9.13
2019-06-26T19:34:15.162Z,8.67
2019-06-26T19:36:50.240Z,9.00
2019-06-26T19:39:20.765Z,9.37
2019-06-26T19:41:49.797Z,8.30
2019-06-26T19:44:20.285Z,8.27
2019-06-26T19:46:50.693Z,9.00
2019-06-26T19:49:21.067Z,9.83
2019-06-26T19:51:54.502Z,8.67
2019-06-26T19:54:27.696Z,9.03
2019-06-26T19:56:57.118Z,9.93
2019-06-26T19:59:27.557Z,8.47
2019-06-26T20:01:58.022Z,8.80
2019-06-26T20:04:28.452Z,9.80
2019-06-26T20:06:58.936Z,9.50
2019-06-26T20:09:29.346Z,9.50
2019-06-26T20:11:59.747Z,9.90
2019-06-26T20:14:30.185Z,9.20
2019-06-26T20:17:00.571Z,9.67
2019-06-26T20:19:33.333Z,10.10
2019-06-26T20:22:03.805Z,9.30
2019-06-26T20:24:44.206Z,9.67
2019-06-26T20:27:08.090Z,9.47
2019-06-26T20:29:38.528Z,10.27
2019-06-26T20:32:08.943Z,10.60
2019-06-26T20:34:39.450Z,11.33
2019-06-26T20:37:09.868Z,9.60
2019-06-26T20:39:40.363Z,11.07
2019-06-26T20:42:12.836Z,10.80
2019-06-26T20:44:43.256Z,10.40
2019-06-26T20:47:13.626Z,10.93
2019-06-26T20:49:53.198Z,10.13
2019-06-26T20:52:16.140Z,8.93
2019-06-26T20:55:00.094Z,7.87
2019-06-26T20:57:18.640Z,9.60
2019-06-26T20:59:49.101Z,9.80
2019-06-26T21:02:19.509Z,9.70
2019-06-26T21:04:49.905Z,10.57
2019-06-26T21:07:20.350Z,10.23
2019-06-26T21:09:50.886Z,10.43
2019-06-26T21:12:21.275Z,10.00
2019-06-26T21:14:51.687Z,9.37
2019-06-26T21:17:25.782Z,10.00
2019-06-26T21:19:56.278Z,9.23
2019-06-26T21:22:26.695Z,10.00
2019-06-26T21:24:57.215Z,9.50
2019-06-26T21:27:27.694Z,10.40
2019-06-26T21:29:58.127Z,8.87
2019-06-26T21:32:28.495Z,10.87
2019-06-26T21:34:58.907Z,12.20
2019-06-26T21:37:29.293Z,11.00
2019-06-26T21:39:59.723Z,11.97
2019-06-26T21:42:31.890Z,12.30
2019-06-26T21:45:02.338Z,11.40
2019-06-26T21:47:35.069Z,10.90
2019-06-26T21:50:06.100Z,12.07
2019-06-26T21:52:36.467Z,11.33
2019-06-26T21:55:07.326Z,12.07
2019-06-26T21:57:37.689Z,12.03
2019-06-26T22:00:09.119Z,12.23
2019-06-26T22:02:39.513Z,11.40
2019-06-26T22:05:11.230Z,11.60
2019-06-26T22:07:41.622Z,12.57
2019-06-26T22:10:12.166Z,11.97
2019-06-26T22:12:42.595Z,10.73
2019-06-26T22:15:14.850Z,11.37
2019-06-26T22:17:45.267Z,11.73
2019-06-26T22:20:17.849Z,11.37
2019-06-26T22:22:48.278Z,11.07
2019-06-26T22:25:18.834Z,11.13
2019-06-26T22:27:49.189Z,10.93
2019-06-26T22:30:19.923Z,9.93
2019-06-26T22:32:50.315Z,11.00
2019-06-26T22:35:20.766Z,9.67
2019-06-26T22:37:51.133Z,9.43
2019-06-26T22:40:21.640Z,10.70
2019-06-26T22:42:52.013Z,11.27
2019-06-26T22:45:22.441Z,10.00
2019-06-26T22:47:52.811Z,11.03
2019-06-26T22:50:23.196Z,11.13
2019-06-26T22:52:53.587Z,10.67
2019-06-26T22:55:23.983Z,11.67
2019-06-26T22:57:54.363Z,12.40
2019-06-26T23:00:24.795Z,11.10
2019-06-26T23:02:55.160Z,12.17
2019-06-26T23:05:25.551Z,12.40
2019-06-26T23:07:55.915Z,11.50
2019-06-26T23:10:26.314Z,12.00
2019-06-26T23:12:56.688Z,12.67
2019-06-26T23:15:27.206Z,13.63
2019-06-26T23:17:57.599Z,12.73
2019-06-26T23:20:27.992Z,12.90
2019-06-26T23:22:58.370Z,11.27
2019-06-26T23:25:28.862Z,12.57
2019-06-26T23:27:59.306Z,12.87
2019-06-26T23:30:29.684Z,12.30
2019-06-26T23:33:00.067Z,12.53
2019-06-26T23:35:30.495Z,12.43
2019-06-26T23:38:00.899Z,12.63
2019-06-26T23:40:31.306Z,11.70
2019-06-26T23:43:01.675Z,12.40
2019-06-26T23:45:32.078Z,12.00
2019-06-26T23:48:02.448Z,13.40
2019-06-26T23:50:32.926Z,13.07
2019-06-26T23:53:03.303Z,12.77
2019-06-26T23:55:33.704Z,12.60
2019-06-26T23:58:04.072Z,12.43
